Vail, Iowa
Current Conditions -  °F | °C
As of 4:55 PM on Saturday 20 Dec 2014 (Local Time) from KDNS Reporting Station
Overcast Overcast  
Wind Chill: 24°   Ceiling: 600
Heat Index: 32°   Visibility: 7mi
Dew Point: 32°   Wind: 9mph
Humidity: 100%   Direction: 180°S
Pressure: 30.06"   Gusts: NA
Location:  42.06°N, 95.2°W
Report Text: KDNS 202255Z AUTO 18008KT 7SM OVC006 00/00 A3006 RMK AO2
Loading
Personal Weather Stations






























Interactive Weather Map New forecast layout! Learn more

10-Day Weather Forecast

Advertisements
Track Severe Weather on mobile